Terminal Aerodrome Forecast
Issued by NWS Knoxville/Tri Cities, TN

Home | Current Version | Previous Version | Text Only | Print | Product List | Glossary On
Versions: 1 2 3 4 5 6 7 8 9 10 11 12 13 14 15 16 17 18 19 20 21 22 23
000
FTUS44 KMRX 271720
TAFTYS
TAF
KTYS 271720Z 2718/2818 25006KT P6SM FEW040
     FM272300 23005KT P6SM VCTS SCT050CB BKN080
     FM280600 23003KT P6SM BKN040
     FM281500 22010KT P6SM BKN050=

USA.gov is the U.S. government's official web portal to all federal, state and local government web resources and services.